createdAt,value
2019-04-16T00:01:08.028Z,53.90
2019-04-16T00:03:40.312Z,54.00
2019-04-16T00:06:15.245Z,54.40
2019-04-16T00:08:46.089Z,54.30
2019-04-16T00:11:18.181Z,54.50
2019-04-16T00:13:49.106Z,54.50
2019-04-16T00:16:18.366Z,54.50
2019-04-16T00:18:57.093Z,54.60
2019-04-16T00:21:20.179Z,54.70
2019-04-16T00:24:07.268Z,54.80
2019-04-16T00:26:36.548Z,54.80
2019-04-16T00:29:05.815Z,54.90
2019-04-16T00:31:37.076Z,54.90
2019-04-16T00:34:06.210Z,54.80
2019-04-16T00:36:48.811Z,55.80
2019-04-16T00:39:18.749Z,55.00
2019-04-16T00:41:47.946Z,55.00
2019-04-16T00:44:17.262Z,55.10
2019-04-16T00:46:46.542Z,55.30
2019-04-16T00:49:15.740Z,55.30
2019-04-16T00:51:44.904Z,55.20
2019-04-16T00:54:15.245Z,55.20
2019-04-16T00:56:46.609Z,55.20
2019-04-16T00:59:15.369Z,55.20
2019-04-16T01:01:44.726Z,55.30
2019-04-16T01:04:13.991Z,55.20
2019-04-16T01:06:43.277Z,55.10
2019-04-16T01:09:12.521Z,55.80
2019-04-16T01:11:42.298Z,55.30
2019-04-16T01:14:11.563Z,55.30
2019-04-16T01:16:40.898Z,56.10
2019-04-16T01:19:11.171Z,55.30
2019-04-16T01:21:44.422Z,55.20
2019-04-16T01:24:11.393Z,55.30
2019-04-16T01:26:40.657Z,55.00
2019-04-16T01:29:11.530Z,55.00
2019-04-16T01:31:51.665Z,55.10
2019-04-16T01:34:31.429Z,54.80
2019-04-16T01:37:11.366Z,54.90
2019-04-16T01:39:42.249Z,54.80
2019-04-16T01:42:13.150Z,54.80
2019-04-16T01:44:43.477Z,54.90
2019-04-16T01:47:13.825Z,54.80
2019-04-16T01:49:43.016Z,54.60
2019-04-16T01:52:24.682Z,54.50
2019-04-16T01:54:54.872Z,54.50
2019-04-16T01:57:24.944Z,54.20
2019-04-16T01:59:54.199Z,54.30
2019-04-16T02:02:24.434Z,54.40
2019-04-16T02:04:53.722Z,54.40
2019-04-16T02:07:27.769Z,54.50
2019-04-16T02:09:53.937Z,54.50
2019-04-16T02:12:23.127Z,54.50
2019-04-16T02:14:52.841Z,54.30
2019-04-16T02:17:41.607Z,54.40
2019-04-16T02:20:10.809Z,54.40
2019-04-16T02:22:52.706Z,54.40
2019-04-16T02:25:21.986Z,54.50
2019-04-16T02:28:03.452Z,54.60
2019-04-16T02:30:37.567Z,54.60
2019-04-16T02:33:03.639Z,54.70
2019-04-16T02:35:33.066Z,54.60
2019-04-16T02:38:02.697Z,54.80
2019-04-16T02:40:32.099Z,54.70
2019-04-16T02:43:08.225Z,54.70
2019-04-16T02:45:37.571Z,54.70
2019-04-16T02:48:17.366Z,54.80
2019-04-16T02:50:54.236Z,54.90
2019-04-16T02:53:43.198Z,54.80
2019-04-16T02:56:32.288Z,55.00
2019-04-16T02:59:13.588Z,54.90
2019-04-16T03:02:22.808Z,54.90
2019-04-16T03:05:06.751Z,55.10
2019-04-16T03:07:36.090Z,55.30
2019-04-16T03:10:05.339Z,55.40
2019-04-16T03:12:34.622Z,55.20
2019-04-16T03:15:04.472Z,55.20
2019-04-16T03:17:42.745Z,55.20
2019-04-16T03:20:16.388Z,55.40
2019-04-16T03:22:45.661Z,55.70
2019-04-16T03:25:14.920Z,55.60
2019-04-16T03:27:44.166Z,55.70
2019-04-16T03:30:15.113Z,55.90
2019-04-16T03:32:48.801Z,56.00
2019-04-16T03:35:18.036Z,56.10
2019-04-16T03:37:47.419Z,56.20
2019-04-16T03:40:18.614Z,56.30
2019-04-16T03:42:49.196Z,56.30
2019-04-16T03:45:18.450Z,56.40
2019-04-16T03:47:51.026Z,56.60
2019-04-16T03:50:18.591Z,56.50
2019-04-16T03:52:47.843Z,56.60
2019-04-16T03:55:17.025Z,56.70
2019-04-16T03:57:46.285Z,56.90
2019-04-16T04:00:15.539Z,56.70
2019-04-16T04:02:44.789Z,56.70
2019-04-16T04:05:14.044Z,56.80
2019-04-16T04:07:44.153Z,56.70
2019-04-16T04:10:29.085Z,56.70
2019-04-16T04:12:46.596Z,56.90
2019-04-16T04:15:28.340Z,56.90
2019-04-16T04:17:57.945Z,56.70
2019-04-16T04:20:49.690Z,56.90
2019-04-16T04:23:17.528Z,57.10
2019-04-16T04:25:47.534Z,57.00
2019-04-16T04:28:19.708Z,57.00
2019-04-16T04:30:48.990Z,57.00
2019-04-16T04:33:40.970Z,57.10
2019-04-16T04:36:10.811Z,57.10
2019-04-16T04:38:40.056Z,57.10
2019-04-16T04:41:09.309Z,57.10
2019-04-16T04:43:38.585Z,57.20
2019-04-16T04:46:13.002Z,57.10
2019-04-16T04:48:38.726Z,57.10
2019-04-16T04:51:20.799Z,57.20
2019-04-16T04:53:51.239Z,57.40
2019-04-16T04:56:20.638Z,57.60
2019-04-16T04:58:49.903Z,57.50
2019-04-16T05:01:19.166Z,57.60
2019-04-16T05:04:02.036Z,57.60
2019-04-16T05:06:31.628Z,57.70
2019-04-16T05:09:01.470Z,57.90
2019-04-16T05:11:32.342Z,57.80
2019-04-16T05:14:14.372Z,57.80
2019-04-16T05:16:43.633Z,57.80
2019-04-16T05:19:25.427Z,58.20
2019-04-16T05:21:54.683Z,57.80
2019-04-16T05:24:28.917Z,57.70
2019-04-16T05:26:56.489Z,58.40
2019-04-16T05:29:25.900Z,57.60
2019-04-16T05:31:57.421Z,57.60
2019-04-16T05:34:26.043Z,57.70
2019-04-16T05:36:55.282Z,57.60
2019-04-16T05:39:28.384Z,57.30
2019-04-16T05:41:55.801Z,58.10
2019-04-16T05:44:25.042Z,57.40
2019-04-16T05:47:06.694Z,57.30
2019-04-16T05:49:35.967Z,57.10
2019-04-16T05:52:06.290Z,57.20
2019-04-16T05:54:37.204Z,57.20
2019-04-16T06:00:10.419Z,57.00
2019-04-16T06:02:41.502Z,56.70
2019-04-16T06:05:10.753Z,56.40
2019-04-16T06:07:40.015Z,56.30
2019-04-16T06:10:09.356Z,56.10
2019-04-16T06:12:43.246Z,55.30
2019-04-16T06:15:32.070Z,55.60
2019-04-16T06:18:11.834Z,55.30
2019-04-16T06:20:49.371Z,55.00
2019-04-16T06:23:48.135Z,54.90
2019-04-16T06:26:20.521Z,54.90
2019-04-16T06:29:03.522Z,55.00
2019-04-16T06:31:39.200Z,54.70
2019-04-16T06:34:12.488Z,54.50
2019-04-16T06:36:46.341Z,54.10
2019-04-16T06:39:29.932Z,53.90
2019-04-16T06:42:06.481Z,53.90
2019-04-16T06:44:37.315Z,53.40
2019-04-16T06:47:10.542Z,53.10
2019-04-16T06:50:07.284Z,52.90
2019-04-16T06:52:46.185Z,52.40
2019-04-16T06:55:16.440Z,52.10
2019-04-16T06:58:03.616Z,52.00
2019-04-16T07:00:46.887Z,52.10
2019-04-16T07:03:33.834Z,52.10
2019-04-16T07:06:04.858Z,51.80
2019-04-16T07:08:41.997Z,51.40
2019-04-16T07:11:13.972Z,51.00
2019-04-16T07:13:43.250Z,50.70
2019-04-16T07:16:12.502Z,50.70
2019-04-16T07:18:41.685Z,50.50
2019-04-16T07:21:14.554Z,50.50
2019-04-16T07:23:45.793Z,50.20
2019-04-16T07:26:15.176Z,49.90
2019-04-16T07:29:04.502Z,49.40
2019-04-16T07:31:56.227Z,49.30
2019-04-16T07:34:34.073Z,49.20
2019-04-16T07:37:11.092Z,49.10
2019-04-16T07:40:00.270Z,48.90
2019-04-16T07:43:46.955Z,48.60
2019-04-16T07:45:19.717Z,48.60
2019-04-16T07:47:55.674Z,48.20
2019-04-16T07:50:35.518Z,48.00
2019-04-16T07:53:22.642Z,47.70
2019-04-16T07:55:59.310Z,47.10
2019-04-16T07:58:28.564Z,46.20
2019-04-16T08:01:00.054Z,46.00
2019-04-16T08:03:41.466Z,45.30
2019-04-16T08:06:14.294Z,45.20
2019-04-16T08:08:53.945Z,44.90
2019-04-16T08:11:23.251Z,44.40
2019-04-16T08:13:52.510Z,43.80
2019-04-16T08:16:21.711Z,43.50
2019-04-16T08:18:52.956Z,43.60
2019-04-16T08:21:22.647Z,43.70
2019-04-16T08:23:55.035Z,43.20
2019-04-16T08:26:41.562Z,42.90
2019-04-16T08:29:10.520Z,42.10
2019-04-16T08:31:44.512Z,41.50
2019-04-16T08:34:14.197Z,41.20
2019-04-16T08:36:43.553Z,41.00
2019-04-16T08:39:14.688Z,40.30
2019-04-16T08:41:45.499Z,40.60
2019-04-16T08:44:14.788Z,40.80
2019-04-16T08:46:44.031Z,41.00
2019-04-16T08:49:16.216Z,40.90
2019-04-16T08:51:49.947Z,40.20
2019-04-16T08:54:19.256Z,39.60
2019-04-16T08:56:48.488Z,39.50
2019-04-16T08:59:19.238Z,39.90
2019-04-16T09:01:51.407Z,39.20
2019-04-16T09:04:19.402Z,39.30
2019-04-16T09:06:48.684Z,39.50
2019-04-16T09:09:24.685Z,39.20
2019-04-16T09:11:55.106Z,39.40
2019-04-16T09:14:26.125Z,39.40
2019-04-16T09:17:13.606Z,39.30
2019-04-16T09:19:45.579Z,39.20
2019-04-16T09:22:16.881Z,39.60
2019-04-16T09:24:50.343Z,39.40
2019-04-16T09:27:28.660Z,39.10
2019-04-16T09:30:04.827Z,38.60
2019-04-16T09:32:41.556Z,38.70
2019-04-16T09:35:18.443Z,38.90
2019-04-16T09:38:01.236Z,38.50
2019-04-16T09:40:49.276Z,38.40
2019-04-16T09:43:23.373Z,38.20
2019-04-16T09:45:51.950Z,38.10
2019-04-16T09:48:23.955Z,37.60
2019-04-16T09:50:53.239Z,37.30
2019-04-16T09:53:32.860Z,37.40
2019-04-16T09:55:53.410Z,37.00
2019-04-16T09:58:24.634Z,36.70
2019-04-16T10:01:10.958Z,37.40
2019-04-16T10:03:41.871Z,38.00
2019-04-16T10:06:11.148Z,36.80
2019-04-16T10:08:44.494Z,37.00
2019-04-16T10:11:11.333Z,37.50
2019-04-16T10:13:40.612Z,38.10
2019-04-16T10:16:09.887Z,38.50
2019-04-16T10:18:39.140Z,38.20
2019-04-16T10:21:08.420Z,37.80
2019-04-16T10:23:42.263Z,37.30
2019-04-16T10:26:12.777Z,36.50
2019-04-16T10:28:43.980Z,37.30
2019-04-16T10:33:56.173Z,36.20
2019-04-16T10:36:25.586Z,36.70
2019-04-16T10:38:59.536Z,36.60
2019-04-16T10:41:38.517Z,36.20
2019-04-16T10:44:17.688Z,36.40
2019-04-16T10:49:45.814Z,35.80
2019-04-16T10:52:22.530Z,35.50
2019-04-16T10:54:57.578Z,35.60
2019-04-16T11:00:14.489Z,35.90
2019-04-16T11:02:47.016Z,35.50
2019-04-16T11:05:19.052Z,36.30
2019-04-16T11:07:51.689Z,35.70
2019-04-16T11:10:20.970Z,35.50
2019-04-16T11:12:50.343Z,35.80
2019-04-16T11:15:21.263Z,36.00
2019-04-16T11:17:50.587Z,36.10
2019-04-16T11:20:19.864Z,36.90
2019-04-16T11:22:49.228Z,36.60
2019-04-16T11:25:21.210Z,37.00
2019-04-16T11:27:51.056Z,36.90
2019-04-16T11:30:21.962Z,36.40
2019-04-16T11:32:53.315Z,36.00
2019-04-16T11:35:23.476Z,36.20
2019-04-16T11:37:54.298Z,36.00
2019-04-16T11:40:23.619Z,35.70
2019-04-16T11:42:53.180Z,35.60
2019-04-16T11:45:25.579Z,35.80
2019-04-16T11:47:54.826Z,36.40
2019-04-16T11:50:24.603Z,36.40
2019-04-16T11:52:57.230Z,36.40
2019-04-16T11:55:27.989Z,36.10
2019-04-16T11:57:57.432Z,36.00
2019-04-16T12:00:37.021Z,35.50
2019-04-16T12:03:08.088Z,35.30
2019-04-16T12:06:01.314Z,35.40
2019-04-16T12:08:38.033Z,35.10
2019-04-16T12:11:09.620Z,35.90
2019-04-16T12:13:56.284Z,35.80
2019-04-16T12:16:44.271Z,35.80
2019-04-16T12:19:24.373Z,35.80
2019-04-16T12:22:02.646Z,36.10
2019-04-16T12:24:50.715Z,35.10
2019-04-16T12:27:37.666Z,35.30
2019-04-16T12:30:28.633Z,35.40
2019-04-16T12:32:59.613Z,35.50
2019-04-16T12:35:46.566Z,35.30
2019-04-16T12:38:24.221Z,35.50
2019-04-16T12:41:11.288Z,36.50
2019-04-16T12:43:54.421Z,35.80
2019-04-16T12:46:28.543Z,35.50
2019-04-16T12:49:02.382Z,35.80
2019-04-16T12:51:46.652Z,35.80
2019-04-16T12:54:31.840Z,36.40
2019-04-16T12:57:05.559Z,36.40
2019-04-16T12:59:38.953Z,36.20
2019-04-16T13:02:22.110Z,36.20
2019-04-16T13:04:55.775Z,36.10
2019-04-16T13:07:29.633Z,36.40
2019-04-16T13:10:10.951Z,36.80
2019-04-16T13:12:57.201Z,36.70
2019-04-16T13:15:43.187Z,37.00
2019-04-16T13:18:17.189Z,36.60
2019-04-16T13:21:05.945Z,36.30
2019-04-16T13:23:37.161Z,37.10
2019-04-16T13:26:11.905Z,36.70
2019-04-16T13:28:40.831Z,36.10
2019-04-16T13:31:10.111Z,36.20
2019-04-16T13:33:40.628Z,35.90
2019-04-16T13:36:11.438Z,36.40
2019-04-16T13:41:33.601Z,37.30
2019-04-16T13:44:09.012Z,37.50
2019-04-16T13:46:38.610Z,37.50
2019-04-16T13:49:12.234Z,37.90
2019-04-16T13:51:41.527Z,38.30
2019-04-16T13:54:18.256Z,38.60
2019-04-16T13:56:55.071Z,38.90
2019-04-16T13:59:30.284Z,38.80
2019-04-16T14:01:59.066Z,38.60
2019-04-16T14:04:31.728Z,37.50
2019-04-16T14:07:00.555Z,37.20
2019-04-16T14:09:29.813Z,36.80
2019-04-16T14:11:59.562Z,36.40
2019-04-16T14:14:28.867Z,36.00
2019-04-16T14:17:08.364Z,35.30
2019-04-16T14:19:29.089Z,34.60
2019-04-16T14:21:58.290Z,33.60
2019-04-16T14:24:27.554Z,33.00
2019-04-16T14:26:56.835Z,33.10
2019-04-16T14:29:27.406Z,32.90
2019-04-16T14:31:56.651Z,32.90
2019-04-16T14:34:29.946Z,33.10
2019-04-16T14:36:59.262Z,33.60
2019-04-16T14:39:39.194Z,33.70
2019-04-16T14:42:08.469Z,33.60
2019-04-16T14:44:55.161Z,34.10
2019-04-16T14:47:24.422Z,35.00
2019-04-16T14:49:53.679Z,35.90
2019-04-16T14:52:22.880Z,36.60
2019-04-16T14:54:56.631Z,36.80
2019-04-16T14:57:25.225Z,36.70
2019-04-16T14:59:59.181Z,36.60
2019-04-16T15:02:30.148Z,36.70
2019-04-16T15:05:03.828Z,36.50
2019-04-16T15:07:37.869Z,36.20
2019-04-16T15:10:37.373Z,35.90
2019-04-16T15:13:11.087Z,35.80
2019-04-16T15:15:44.295Z,35.80
2019-04-16T15:18:17.966Z,36.00
2019-04-16T15:20:48.179Z,36.30
2019-04-16T15:23:25.037Z,36.10
2019-04-16T15:26:12.440Z,36.30
2019-04-16T15:28:46.102Z,36.40
2019-04-16T15:31:33.066Z,37.00
2019-04-16T15:34:16.065Z,37.00
2019-04-16T15:36:49.856Z,37.00
2019-04-16T15:39:19.519Z,37.10
2019-04-16T15:41:59.625Z,37.20
2019-04-16T15:44:32.328Z,37.50
2019-04-16T15:47:06.136Z,37.50
2019-04-16T15:49:49.320Z,37.50
2019-04-16T15:52:27.345Z,37.80
2019-04-16T15:55:14.849Z,37.70
2019-04-16T15:57:51.951Z,38.20
2019-04-16T16:00:22.847Z,38.90
2019-04-16T16:03:10.113Z,40.80
2019-04-16T16:05:50.396Z,41.80
2019-04-16T16:08:48.574Z,42.40
2019-04-16T16:14:00.453Z,42.60
2019-04-16T16:16:41.074Z,42.70
2019-04-16T16:18:59.615Z,42.90
2019-04-16T16:21:28.911Z,43.20
2019-04-16T16:23:58.274Z,43.50
2019-04-16T16:26:27.536Z,43.70
2019-04-16T16:28:56.807Z,44.30
2019-04-16T16:31:26.057Z,44.70
2019-04-16T16:33:55.350Z,45.00
2019-04-16T16:36:24.634Z,44.70
2019-04-16T16:38:53.891Z,45.10
2019-04-16T16:41:23.176Z,45.20
2019-04-16T16:43:52.458Z,45.10
2019-04-16T16:46:23.369Z,45.20
2019-04-16T16:48:54.407Z,45.10
2019-04-16T16:51:37.890Z,45.30
2019-04-16T16:54:27.356Z,45.50
2019-04-16T16:57:03.019Z,45.70
2019-04-16T16:59:33.986Z,45.90
2019-04-16T17:02:10.956Z,46.30
2019-04-16T17:04:43.091Z,46.60
2019-04-16T17:07:25.068Z,46.90
2019-04-16T17:09:54.350Z,47.20
2019-04-16T17:12:43.914Z,47.30
2019-04-16T17:15:13.180Z,47.30
2019-04-16T17:17:44.445Z,47.40
2019-04-16T17:20:13.654Z,47.90
2019-04-16T17:22:42.845Z,48.10
2019-04-16T17:25:13.697Z,48.20
2019-04-16T17:27:51.323Z,48.40
2019-04-16T17:30:13.938Z,48.40
2019-04-16T17:32:44.174Z,48.60
2019-04-16T17:35:15.516Z,48.50
2019-04-16T17:37:44.354Z,48.80
2019-04-16T17:40:16.311Z,48.90
2019-04-16T17:42:47.996Z,49.00
2019-04-16T17:45:34.974Z,49.20
2019-04-16T17:48:14.687Z,49.40
2019-04-16T17:50:46.559Z,49.70
2019-04-16T17:53:33.377Z,49.90
2019-04-16T17:56:20.672Z,50.10
2019-04-16T17:58:54.929Z,50.40
2019-04-16T18:01:27.306Z,50.40
2019-04-16T18:03:58.203Z,50.60
2019-04-16T18:06:29.132Z,50.80
2019-04-16T18:09:03.069Z,51.10
2019-04-16T18:11:45.446Z,53.50
2019-04-16T18:17:46.270Z,55.80
2019-04-16T18:20:22.431Z,56.60
2019-04-16T18:22:54.664Z,56.90
2019-04-16T18:25:55.158Z,57.60
2019-04-16T18:28:17.104Z,57.80
2019-04-16T18:30:50.415Z,58.20
2019-04-16T18:33:32.357Z,58.50
2019-04-16T18:36:03.247Z,59.10
2019-04-16T18:38:40.655Z,58.90
2019-04-16T18:41:18.714Z,59.10
2019-04-16T18:44:06.846Z,59.40
2019-04-16T18:46:37.921Z,59.70
2019-04-16T18:49:14.302Z,60.00
2019-04-16T18:51:46.626Z,60.00
2019-04-16T18:54:16.551Z,60.50
2019-04-16T18:56:47.460Z,60.70
2019-04-16T18:59:18.722Z,60.90
2019-04-16T19:01:49.863Z,61.30
2019-04-16T19:04:22.017Z,61.60
2019-04-16T19:07:03.446Z,61.90
2019-04-16T19:09:35.308Z,62.00
2019-04-16T19:12:04.568Z,62.40
2019-04-16T19:14:36.494Z,62.90
2019-04-16T19:17:04.986Z,63.00
2019-04-16T19:19:34.263Z,63.10
2019-04-16T19:22:03.790Z,63.30
2019-04-16T19:24:45.991Z,63.40
2019-04-16T19:27:15.279Z,63.60
2019-04-16T19:29:45.494Z,63.90
2019-04-16T19:32:15.404Z,64.20
2019-04-16T19:34:44.725Z,64.30
2019-04-16T19:37:13.992Z,64.50
2019-04-16T19:39:43.747Z,64.60
2019-04-16T19:42:15.226Z,65.00
2019-04-16T19:44:44.565Z,65.00
2019-04-16T19:47:13.826Z,65.10
2019-04-16T19:49:43.090Z,65.30
2019-04-16T19:52:17.132Z,65.80
2019-04-16T19:54:57.264Z,65.60
2019-04-16T19:57:26.650Z,65.80
2019-04-16T19:59:56.978Z,65.80
2019-04-16T20:02:26.229Z,65.80
2019-04-16T20:04:55.432Z,65.80
2019-04-16T20:07:24.792Z,66.00
2019-04-16T20:09:54.168Z,66.10
2019-04-16T20:12:25.113Z,66.20
2019-04-16T20:14:55.738Z,66.20
2019-04-16T20:17:26.017Z,66.20
2019-04-16T20:19:58.543Z,66.50
2019-04-16T20:22:30.244Z,66.40
2019-04-16T20:24:59.742Z,66.60
2019-04-16T20:27:30.226Z,66.90
2019-04-16T20:29:59.553Z,66.90
2019-04-16T20:32:30.884Z,67.10
2019-04-16T20:35:00.247Z,67.20
2019-04-16T20:37:31.971Z,67.30
2019-04-16T20:40:01.271Z,67.40
2019-04-16T20:42:33.643Z,67.80
2019-04-16T20:45:02.966Z,67.80
2019-04-16T20:47:32.253Z,68.10
2019-04-16T20:50:04.254Z,68.10
2019-04-16T20:52:34.155Z,68.10
2019-04-16T20:55:03.955Z,68.10
2019-04-16T20:57:33.274Z,68.10
2019-04-16T21:00:03.405Z,67.80
2019-04-16T21:02:32.923Z,67.70
2019-04-16T21:05:04.631Z,67.90
2019-04-16T21:07:35.278Z,67.80
2019-04-16T21:10:06.284Z,67.90
2019-04-16T21:12:36.443Z,68.10
2019-04-16T21:15:09.095Z,68.20
2019-04-16T21:17:39.332Z,68.50
2019-04-16T21:20:08.737Z,68.60
2019-04-16T21:22:39.623Z,68.70
2019-04-16T21:25:12.544Z,68.90
2019-04-16T21:27:56.604Z,69.10
2019-04-16T21:30:25.862Z,68.90
2019-04-16T21:33:03.002Z,69.00
2019-04-16T21:35:36.760Z,69.00
2019-04-16T21:38:07.670Z,69.00
2019-04-16T21:40:37.022Z,69.00
2019-04-16T21:43:08.214Z,68.90
2019-04-16T21:45:37.319Z,68.90
2019-04-16T21:48:06.594Z,68.70
2019-04-16T21:50:35.854Z,68.70
2019-04-16T21:53:05.206Z,68.70
2019-04-16T21:55:35.481Z,68.80
2019-04-16T21:58:05.757Z,68.80
2019-04-16T22:00:39.485Z,68.70
2019-04-16T22:03:14.843Z,68.80
2019-04-16T22:05:48.082Z,68.90
2019-04-16T22:08:15.034Z,68.90
2019-04-16T22:10:46.554Z,69.10
2019-04-16T22:13:19.087Z,69.20
2019-04-16T22:15:47.123Z,68.90
2019-04-16T22:18:17.766Z,68.90
2019-04-16T22:20:46.958Z,68.80
2019-04-16T22:23:19.052Z,68.80
2019-04-16T22:25:47.114Z,68.90
2019-04-16T22:28:16.485Z,69.00
2019-04-16T22:30:51.124Z,69.20
2019-04-16T22:33:16.766Z,69.40
2019-04-16T22:35:46.041Z,69.50
2019-04-16T22:38:15.227Z,69.90
2019-04-16T22:40:55.000Z,69.70
2019-04-16T22:43:42.329Z,69.70
2019-04-16T22:46:12.105Z,70.00
2019-04-16T22:48:43.010Z,70.10
2019-04-16T22:51:12.278Z,70.70
2019-04-16T22:53:41.533Z,70.60
2019-04-16T22:56:10.765Z,70.60
2019-04-16T22:58:49.995Z,71.10
2019-04-16T23:01:28.263Z,71.30
2019-04-16T23:03:57.550Z,71.60
2019-04-16T23:06:26.815Z,71.80
2019-04-16T23:08:56.088Z,71.70
2019-04-16T23:11:25.349Z,71.90
2019-04-16T23:13:54.609Z,71.90
2019-04-16T23:16:23.954Z,71.70
2019-04-16T23:18:53.202Z,72.00
2019-04-16T23:21:22.450Z,72.10
2019-04-16T23:23:52.349Z,72.40
2019-04-16T23:26:22.772Z,72.60
2019-04-16T23:28:52.140Z,72.90
2019-04-16T23:31:22.558Z,73.30
2019-04-16T23:33:52.281Z,73.50
2019-04-16T23:36:21.554Z,73.50
2019-04-16T23:38:51.294Z,74.00
2019-04-16T23:41:20.554Z,74.20
2019-04-16T23:43:53.506Z,74.30
2019-04-16T23:46:42.062Z,74.70
2019-04-16T23:49:12.998Z,74.70
2019-04-16T23:51:43.949Z,75.00
2019-04-16T23:54:14.839Z,75.30
2019-04-16T23:56:49.788Z,75.20
2019-04-16T23:59:23.953Z,75.50
